ADDS METAR Data INFO
IDs: Format: Raw Decoded Include TAF

Data at: 2016 UTC 18 Jul 2018

KMLU 181953Z 24008KT 6SM BR SCT085 32/24 A2996 RMK AO2 SLP142 T03170239
KMLU 181853Z 24012KT 10SM HZ FEW085 32/24 A2997 RMK AO2 SLP148 T03220239
KMLU 181753Z 22008KT 6SM HZ SCT038 BKN080 28/24 A2999 RMK AO2 RAE04 SLP155 P0000 60015 T02830244 10306 20250 58003
KMLU 181653Z 18007KT 3SM -RA HZ SCT040 BKN050 OVC085 26/24 A3001 RMK AO2 SLP161 P0014 T02560244
KMLU 181640Z 17005KT 1 3/4SM +RA HZ SCT036 BKN075 OVC090 26/25 A3001 RMK AO2 P0010 T02610250
KMLU 181553Z 26012KT 10SM -RA HZ BKN070 28/24 A3001 RMK AO2 RAB36 SLP161 P0001 T02780244
KMLU 181453Z 25005KT 4SM HZ SCT060 SCT110 29/24 A3000 RMK AO2 SLP158 T02940244 52002
KMLU 181353Z 23006KT 9SM BKN065 BKN080 28/25 A3000 RMK AO2 SLP157 T02830250
KMLU 181253Z 22005KT 8SM SCT070 BKN085 26/25 A3000 RMK AO2 SLP156 T02610250
KMLU 181153Z 20003KT 6SM BR FEW075 BKN110 25/25 A2999 RMK AO2 SLP155 60000 70106 T02500250 10261 20244 51007
KMLU 181053Z 21003KT 7SM SCT085 SCT110 24/24 A2999 RMK AO2 RAE0955 SLP153 P0000 T02440244
KMLU 180953Z AUTO 19003KT 4SM -RA BR SCT070 BKN110 25/25 A2998 RMK AO2 RAB43 SLP151 P0000 T02500250
KMLU 180853Z AUTO 00000KT 6SM BR CLR 25/24 A2997 RMK AO2 SLP148 T02500244 53000
KMLU 180753Z AUTO 00000KT 8SM FEW085 26/25 A2996 RMK AO2 SLP145 T02560250
KMLU 180653Z AUTO 00000KT 10SM BKN070 26/25 A2997 RMK AO2 SLP146 T02610250
KMLU 180553Z AUTO 00000KT 10SM CLR 26/25 A2997 RMK AO2 SLP148 T02610250 10289 20261 403110244 58007
KMLU 180453Z AUTO 17004KT 10SM FEW075 27/24 A2999 RMK AO2 SLP154 T02720244
KMLU 180353Z AUTO 18003KT 9SM FEW090 26/25 A2999 RMK AO2 LTG DSNT NE SLP154 T02610250
KMLU 180253Z 00000KT 10SM SCT090 27/25 A2999 RMK AO2 LTG DSNT N SLP155 T02670250 53006
KMLU 180153Z 00000KT 10SM BKN100 27/26 A2999 RMK AO2 SLP152 T02720256
KMLU 180053Z 00000KT 9SM CLR 28/25 A2998 RMK AO2 SLP149 T02830250
KMLU 172353Z 12003KT 9SM CLR 29/26 A2998 RMK AO2 SLP149 60031 T02890256 10311 20244 55009
KMLU 172253Z 19004KT 9SM FEW120 29/24 A2997 RMK AO2 SLP146 T02940244
KMLU 172153Z 20006KT 10SM SCT110 30/23 A2998 RMK AO2 SLP151 T03000233
KMLU 172053Z COR 20005KT 10SM BKN060 31/23 A3000 RMK AO2 SLP157 60031 T03060233 56026
KMLU 171953Z COR 23008KT 10SM BKN060 28/25 A3002 RMK AO2 LTG DSNT N AND NW RAE04 SLP163 P0000 T02830250
KMLU 171853Z 21009KT 6SM -RA BR FEW036 OVC075 26/24 A3005 RMK AO2 SLP174 P0031 T02560244
KMLU 171827Z 15007KT 3SM RA BR FEW043 SCT055 OVC070 24/24 A3006 RMK AO2 P0030 T02440239
KMLU 171818Z 18006KT 2 1/2SM RA BR SCT033 OVC070 25/24 A3006 RMK AO2 P0027 T02500239
KMLU 171807Z VRB03KT 1 1/4SM +RA BR SCT028 OVC065 24/23 A3007 RMK AO2 P0024 T02440233
KMLU 171800Z 20009G24KT 3/4SM +RA BR BKN026 OVC065 24/23 A3007 RMK AO2 P0017 T02440233
KMLU 171753Z 20008KT 4SM RA BR BKN029 OVC065 25/24 A3008 RMK AO2 SLP183 P0018 60075 T02500244 10283 20244 51005
KMLU 171653Z 22004KT 4SM -RA BR BKN029 BKN070 OVC085 25/24 A3008 RMK AO2 SLP183 P0011 T02500244
KMLU 171553Z 36006KT 4SM -RA BR OVC030 25/23 A3007 RMK AO2 SLP181 P0029 T02500228
KMLU 171542Z 30003KT 3SM -RA BR OVC030 24/23 A3007 RMK AO2 P0027 T02440233
KMLU 171534Z 30005KT 1 1/2SM +RA BR OVC030 24/23 A3007 RMK AO2 P0025 T02440228
KMLU 171520Z 29005KT 2 1/2SM RA BR OVC030 25/24 A3007 RMK AO2 P0016 T02500239
KMLU 171504Z 28011KT 1 1/4SM +RA BR OVC030 25/24 A3006 RMK AO2 P0010 T02500239
KMLU 171453Z 30010KT 1 1/4SM +TSRA BR OVC030 25/24 A3006 RMK AO2 RAB25 TSB19 SLP178 P0017 60017 T02500239 51009
KMLU 171449Z 32011KT 2SM +TSRA BR OVC030 26/24 A3006 RMK AO2 RAB25 TSB19 P0010
KMLU 171425Z 35012KT 9SM -TSRA SCT080 SCT095 BKN120 27/23 A3006 RMK AO2 RAB25 TSB19 P0000 T02720233
KMLU 171353Z 26004KT 8SM SCT075 SCT095 28/24 A3004 RMK AO2 RAB04E13 SLP172 P0000 T02830244
KMLU 171253Z 20004KT 10SM BKN090 BKN110 26/24 A3003 RMK AO2 SLP169 T02610244
KMLU 171153Z 17003KT 10SM OVC100 26/24 A3002 RMK AO2 SLP164 T02560239 10256 20244 52010
KMLU 171053Z 17004KT 10SM SCT120 25/23 A3001 RMK AO2 SLP161 T02500233
KMLU 170953Z 16003KT 10SM FEW120 26/23 A3000 RMK AO2 SLP157 T02560233
KMLU 170853Z 19003KT 10SM CLR 25/23 A2999 RMK AO2 SLP154 T02500233 55008